Time;durP1;ratioP1;P1;durP2;ratioP2;P2;SDS_P1;SDS_P2;PMS_P1;PMS_P2;Temp;Humidity;BMP_temperature;BMP_pressure;BME280_temperature;BME280_humidity;BME280_pressure;Samples;Min_cycle;Max_cycle;Signal;HPM_P1;HPM_P2
2022/07/21 00:01:15;;;;;;;28.35;22.80;;;;;;;;;;6023345;29;20041;-77
2022/07/21 00:04:17;;;;;;;39.08;24.35;;;;;;;;;;6022828;29;20056;-79
2022/07/21 00:07:19;;;;;;;37.28;24.45;;;;;;;;;;6030379;29;20045;-79
2022/07/21 00:10:23;;;;;;;33.27;24.33;;;;;;;;;;6032178;29;20085;-80
2022/07/21 00:13:25;;;;;;;34.45;24.67;;;;;;;;;;6033085;29;20513;-79
2022/07/21 00:16:27;;;;;;;33.80;24.13;;;;;;;;;;6031309;29;20065;-80
2022/07/21 00:19:28;;;;;;;39.00;24.83;;;;;;;;;;6013166;29;20352;-78
2022/07/21 00:22:30;;;;;;;31.05;23.80;;;;;;;;;;6025551;29;20055;-79
2022/07/21 00:25:32;;;;;;;32.03;24.10;;;;;;;;;;6011749;29;20045;-79
2022/07/21 00:28:35;;;;;;;34.30;24.50;;;;;;;;;;6022591;29;20042;-79
2022/07/21 00:31:36;;;;;;;32.97;24.80;;;;;;;;;;6031293;29;20045;-80
2022/07/21 00:34:38;;;;;;;33.97;24.88;;;;;;;;;;6014890;29;20045;-79
2022/07/21 00:37:40;;;;;;;37.67;26.60;;;;;;;;;;6030470;29;20038;-79
2022/07/21 00:40:42;;;;;;;34.85;25.65;;;;;;;;;;6029606;29;20132;-79
2022/07/21 00:43:44;;;;;;;35.55;26.88;;;;;;;;;;6028996;29;20048;-79
2022/07/21 00:46:45;;;;;;;36.10;27.23;;;;;;;;;;6015818;29;20109;-80
2022/07/21 00:49:48;;;;;;;33.72;26.23;;;;;;;;;;6028384;29;20520;-80
2022/07/21 00:52:50;;;;;;;29.85;23.98;;;;;;;;;;6025400;29;20158;-79
2022/07/21 00:55:52;;;;;;;33.08;24.83;;;;;;;;;;6020362;29;20136;-79
2022/07/21 00:58:53;;;;;;;33.00;23.52;;;;;;;;;;6037170;29;20129;-79
2022/07/21 01:01:56;;;;;;;32.35;23.50;;;;;;;;;;6039089;29;20053;-79
2022/07/21 01:04:58;;;;;;;28.35;21.60;;;;;;;;;;6031135;29;20094;-79
2022/07/21 01:08:02;;;;;;;28.05;21.08;;;;;;;;;;6035661;29;20059;-80
2022/07/21 01:11:04;;;;;;;26.50;21.77;;;;;;;;;;6035964;29;20041;-79
2022/07/21 01:14:06;;;;;;;29.65;21.88;;;;;;;;;;6020777;29;20045;-79
2022/07/21 01:17:08;;;;;;;28.55;22.30;;;;;;;;;;6036259;29;20045;-80
2022/07/21 01:20:12;;;;;;;27.85;21.63;;;;;;;;;;6032660;29;20053;-79
2022/07/21 01:23:14;;;;;;;29.40;21.17;;;;;;;;;;6037522;29;20105;-79
2022/07/21 01:26:16;;;;;;;26.87;19.07;;;;;;;;;;6037143;29;20113;-79
2022/07/21 01:29:19;;;;;;;24.10;19.38;;;;;;;;;;6035945;29;20073;-79
2022/07/21 01:32:20;;;;;;;27.25;20.30;;;;;;;;;;6035752;29;20143;-78
2022/07/21 01:35:22;;;;;;;30.70;21.00;;;;;;;;;;6031072;29;20140;-80
2022/07/21 01:41:44;;;;;;;16.88;11.85;;;;;;;;;;6031083;29;20057;-80
2022/07/21 01:44:46;;;;;;;16.52;11.48;;;;;;;;;;6028613;29;20113;-79
2022/07/21 01:47:48;;;;;;;14.52;10.73;;;;;;;;;;6015638;29;20129;-80
2022/07/21 01:50:49;;;;;;;13.93;9.60;;;;;;;;;;6032134;29;20722;-79
2022/07/21 01:53:52;;;;;;;11.70;10.10;;;;;;;;;;6036256;29;20041;-79
2022/07/21 01:56:55;;;;;;;10.40;8.85;;;;;;;;;;6035393;29;20046;-79
2022/07/21 01:59:56;;;;;;;11.63;8.65;;;;;;;;;;6030998;29;20072;-80
2022/07/21 02:02:58;;;;;;;12.48;8.38;;;;;;;;;;6036774;29;20098;-79
2022/07/21 02:06:01;;;;;;;12.02;8.35;;;;;;;;;;6014224;29;20046;-79
2022/07/21 02:09:03;;;;;;;10.98;8.30;;;;;;;;;;6032419;29;20061;-78
2022/07/21 02:12:05;;;;;;;10.48;7.60;;;;;;;;;;6031164;29;20105;-80
2022/07/21 02:15:07;;;;;;;9.40;7.63;;;;;;;;;;6030548;29;20620;-79
2022/07/21 02:18:09;;;;;;;11.02;8.02;;;;;;;;;;6030430;29;20050;-80
2022/07/21 02:21:11;;;;;;;10.20;7.93;;;;;;;;;;6032672;29;20064;-79
2022/07/21 02:24:13;;;;;;;9.77;8.25;;;;;;;;;;6032729;29;20045;-79
2022/07/21 02:27:14;;;;;;;10.48;7.88;;;;;;;;;;6029752;29;20400;-79
2022/07/21 02:30:17;;;;;;;10.52;7.65;;;;;;;;;;6033458;29;20125;-79
2022/07/21 02:33:19;;;;;;;10.63;7.55;;;;;;;;;;6026940;29;20068;-79
2022/07/21 02:36:21;;;;;;;9.30;7.40;;;;;;;;;;6025687;29;20145;-77
2022/07/21 02:39:22;;;;;;;10.15;7.38;;;;;;;;;;6026014;29;20162;-77
2022/07/21 02:42:24;;;;;;;8.13;6.88;;;;;;;;;;6025725;29;20041;-78
2022/07/21 02:45:26;;;;;;;11.13;6.97;;;;;;;;;;6008626;29;20050;-78
2022/07/21 02:48:27;;;;;;;10.40;7.13;;;;;;;;;;6020864;29;20050;-78
2022/07/21 02:51:29;;;;;;;9.45;7.20;;;;;;;;;;6004960;29;20049;-77
2022/07/21 02:54:31;;;;;;;8.32;6.70;;;;;;;;;;6024306;29;20049;-78
2022/07/21 02:57:33;;;;;;;9.63;7.27;;;;;;;;;;6022944;29;20042;-77
2022/07/21 03:00:40;;;;;;;10.85;7.40;;;;;;;;;;6022184;29;20049;-75
2022/07/21 03:03:41;;;;;;;10.95;7.43;;;;;;;;;;6024398;29;20502;-76
2022/07/21 03:06:43;;;;;;;8.98;6.57;;;;;;;;;;6025682;29;20041;-77
2022/07/21 03:09:45;;;;;;;9.05;7.57;;;;;;;;;;6021674;29;20068;-77
2022/07/21 03:12:47;;;;;;;10.88;6.88;;;;;;;;;;6020474;29;20061;-76
2022/07/21 03:15:48;;;;;;;9.88;7.20;;;;;;;;;;6022744;29;20046;-76
2022/07/21 03:18:50;;;;;;;11.15;7.75;;;;;;;;;;6020344;29;20520;-78
2022/07/21 03:21:52;;;;;;;12.03;8.20;;;;;;;;;;6022690;29;20133;-77
2022/07/21 03:24:54;;;;;;;13.45;8.52;;;;;;;;;;6005700;29;20113;-77
2022/07/21 03:27:56;;;;;;;11.90;8.20;;;;;;;;;;6020209;29;20045;-76
2022/07/21 03:30:57;;;;;;;10.77;8.10;;;;;;;;;;6012066;29;20098;-77
2022/07/21 03:33:59;;;;;;;10.75;8.77;;;;;;;;;;6013295;29;20462;-77
2022/07/21 03:37:01;;;;;;;10.63;8.48;;;;;;;;;;6022160;29;20077;-77
2022/07/21 03:40:02;;;;;;;13.27;8.25;;;;;;;;;;6021243;29;20049;-76
2022/07/21 03:43:06;;;;;;;11.43;8.50;;;;;;;;;;6015987;29;20189;-76
2022/07/21 03:46:07;;;;;;;10.98;7.85;;;;;;;;;;6013202;29;20122;-75
2022/07/21 03:49:09;;;;;;;12.70;8.57;;;;;;;;;;6004586;29;20052;-77
2022/07/21 03:52:10;;;;;;;10.30;8.32;;;;;;;;;;6005489;29;20041;-75
2022/07/21 03:55:17;;;;;;;10.43;8.27;;;;;;;;;;6003318;29;20033;-77
2022/07/21 03:58:18;;;;;;;10.43;7.93;;;;;;;;;;6014927;29;20042;-77
2022/07/21 04:01:20;;;;;;;12.27;8.48;;;;;;;;;;6021372;29;20073;-75
2022/07/21 04:04:21;;;;;;;11.10;8.45;;;;;;;;;;6003279;29;20060;-76
2022/07/21 04:07:23;;;;;;;10.90;8.10;;;;;;;;;;6021352;29;20514;-77
2022/07/21 04:10:27;;;;;;;10.15;7.70;;;;;;;;;;6005101;29;20413;-77
2022/07/21 04:13:29;;;;;;;12.95;8.70;;;;;;;;;;6017801;29;20046;-76
2022/07/21 04:16:30;;;;;;;10.45;8.23;;;;;;;;;;6021649;29;20052;-77
2022/07/21 04:19:32;;;;;;;11.05;8.52;;;;;;;;;;6017196;29;20090;-75
2022/07/21 04:22:34;;;;;;;11.45;7.78;;;;;;;;;;6021134;29;20042;-76
2022/07/21 04:25:38;;;;;;;10.55;7.95;;;;;;;;;;6020507;29;20045;-77
2022/07/21 04:28:39;;;;;;;11.02;8.63;;;;;;;;;;6016852;29;20049;-77
2022/07/21 04:31:41;;;;;;;10.00;8.48;;;;;;;;;;6024826;29;20101;-77
2022/07/21 04:34:43;;;;;;;12.07;8.50;;;;;;;;;;6024027;29;20489;-77
2022/07/21 04:37:44;;;;;;;13.95;8.93;;;;;;;;;;6008013;29;20048;-77
2022/07/21 04:40:46;;;;;;;11.73;8.57;;;;;;;;;;6012142;29;20042;-77
2022/07/21 04:43:47;;;;;;;9.88;7.95;;;;;;;;;;6003298;29;20049;-77
2022/07/21 04:46:50;;;;;;;11.27;8.68;;;;;;;;;;6024412;29;20046;-75
2022/07/21 04:49:52;;;;;;;11.02;8.15;;;;;;;;;;6007966;29;20459;-77
2022/07/21 04:52:55;;;;;;;9.60;8.05;;;;;;;;;;6024201;29;20072;-77
2022/07/21 04:55:56;;;;;;;13.88;10.35;;;;;;;;;;6024227;29;20229;-77
2022/07/21 04:58:58;;;;;;;13.48;10.13;;;;;;;;;;6007316;29;20053;-76
2022/07/21 05:02:01;;;;;;;12.38;8.85;;;;;;;;;;6023780;29;20064;-76
2022/07/21 05:05:04;;;;;;;14.40;9.57;;;;;;;;;;6021279;29;20137;-77
2022/07/21 05:08:06;;;;;;;;;;;;;;;;;;6024747;29;20128;-77
2022/07/21 05:11:07;;;;;;;11.02;8.65;;;;;;;;;;6024145;29;20015;-77
2022/07/21 05:14:10;;;;;;;11.75;9.05;;;;;;;;;;6001093;29;20041;-77
2022/07/21 05:17:15;;;;;;;12.70;9.63;;;;;;;;;;6024097;29;20056;-77
2022/07/21 05:20:17;;;;;;;13.68;9.60;;;;;;;;;;6006737;29;20053;-75
2022/07/21 05:23:19;;;;;;;15.50;11.55;;;;;;;;;;6024866;29;20048;-76
2022/07/21 05:26:21;;;;;;;17.67;11.60;;;;;;;;;;6007241;29;20046;-77
2022/07/21 05:29:22;;;;;;;14.98;11.52;;;;;;;;;;6008636;29;20053;-77
2022/07/21 05:32:24;;;;;;;15.32;11.38;;;;;;;;;;6025214;29;20046;-77
2022/07/21 05:35:25;;;;;;;13.88;10.48;;;;;;;;;;6006540;29;20497;-77
2022/07/21 05:38:27;;;;;;;13.88;10.15;;;;;;;;;;6025065;29;20519;-78
2022/07/21 05:41:28;;;;;;;11.02;8.82;;;;;;;;;;6025997;29;20109;-78
2022/07/21 05:44:30;;;;;;;13.20;8.52;;;;;;;;;;6009950;29;20052;-77
2022/07/21 05:47:32;;;;;;;11.00;8.02;;;;;;;;;;6009378;29;20102;-76
2022/07/21 05:50:34;;;;;;;11.20;8.05;;;;;;;;;;6021568;29;20094;-76
2022/07/21 05:53:35;;;;;;;11.30;8.38;;;;;;;;;;6022858;29;20049;-75
2022/07/21 05:56:37;;;;;;;8.90;7.10;;;;;;;;;;6015843;29;20082;-75
2022/07/21 05:59:39;;;;;;;9.85;6.78;;;;;;;;;;6019551;29;20053;-75
2022/07/21 06:02:40;;;;;;;7.00;6.00;;;;;;;;;;6022146;29;20065;-76
2022/07/21 06:05:42;;;;;;;8.80;6.20;;;;;;;;;;6016497;29;20065;-75
2022/07/21 06:08:46;;;;;;;9.32;6.30;;;;;;;;;;6022237;29;20042;-76
2022/07/21 06:11:47;;;;;;;8.77;6.22;;;;;;;;;;6018148;29;20037;-76
2022/07/21 06:14:49;;;;;;;6.72;5.30;;;;;;;;;;6012492;29;20053;-75
2022/07/21 06:17:51;;;;;;;6.55;5.57;;;;;;;;;;6022013;29;20049;-75
2022/07/21 06:20:52;;;;;;;8.48;5.60;;;;;;;;;;6018072;29;20048;-75
2022/07/21 06:23:54;;;;;;;9.20;5.50;;;;;;;;;;6021344;29;20049;-76
2022/07/21 06:26:56;;;;;;;7.00;5.20;;;;;;;;;;6021463;29;20121;-75
2022/07/21 06:30:06;;;;;;;7.32;6.47;;;;;;;;;;6016928;29;20501;-75
2022/07/21 06:33:08;;;;;;;7.53;5.65;;;;;;;;;;6021375;29;20063;-74
2022/07/21 06:36:10;;;;;;;8.67;5.70;;;;;;;;;;6021272;29;20692;-75
2022/07/21 06:39:12;;;;;;;9.07;6.35;;;;;;;;;;6020338;29;20709;-75
2022/07/21 06:42:14;;;;;;;7.87;6.10;;;;;;;;;;6005144;29;20494;-76
2022/07/21 06:45:16;;;;;;;7.47;6.57;;;;;;;;;;6004071;29;20048;-76
2022/07/21 06:48:17;;;;;;;7.97;6.50;;;;;;;;;;6019351;29;20458;-75
2022/07/21 06:51:19;;;;;;;8.48;6.43;;;;;;;;;;6019631;29;20129;-75
2022/07/21 06:54:21;;;;;;;7.28;6.43;;;;;;;;;;6021756;29;20053;-75
2022/07/21 06:57:23;;;;;;;7.38;6.55;;;;;;;;;;6018102;29;20050;-76
2022/07/21 07:00:24;;;;;;;8.82;6.25;;;;;;;;;;6004508;29;20106;-75
2022/07/21 07:03:26;;;;;;;8.77;6.45;;;;;;;;;;6017245;29;20091;-76
2022/07/21 07:06:29;;;;;;;8.65;7.25;;;;;;;;;;6021062;29;20049;-76
2022/07/21 07:09:30;;;;;;;8.45;6.78;;;;;;;;;;6020771;29;20053;-76
2022/07/21 07:12:32;;;;;;;7.40;6.65;;;;;;;;;;6014643;29;20062;-75
2022/07/21 07:15:54;;;;;;;9.85;7.22;;;;;;;;;;6016549;29;20053;-75
2022/07/21 07:18:55;;;;;;;9.27;7.15;;;;;;;;;;6016287;29;20181;-75
2022/07/21 07:21:58;;;;;;;;;;;;;;;;;;6021130;29;20124;-75
2022/07/21 07:25:00;;;;;;;9.07;6.93;;;;;;;;;;6018925;29;19935;-75
2022/07/21 07:28:02;;;;;;;8.85;7.00;;;;;;;;;;5989009;29;20105;-75
2022/07/21 07:31:03;;;;;;;8.48;6.72;;;;;;;;;;6020341;29;20148;-75
2022/07/21 07:34:06;;;;;;;7.35;6.55;;;;;;;;;;6018507;29;20059;-75
2022/07/21 07:37:07;;;;;;;8.60;7.05;;;;;;;;;;6020084;29;20390;-75
2022/07/21 07:40:13;;;;;;;9.05;6.95;;;;;;;;;;6020179;29;20046;-76
2022/07/21 07:43:14;;;;;;;9.07;7.38;;;;;;;;;;6017424;29;20101;-76
2022/07/21 07:46:18;;;;;;;8.88;6.90;;;;;;;;;;6019098;29;20053;-76
2022/07/21 07:49:20;;;;;;;7.40;6.60;;;;;;;;;;5997124;29;20140;-76
2022/07/21 07:52:22;;;;;;;7.82;6.57;;;;;;;;;;6005683;29;20050;-76
2022/07/21 07:55:23;;;;;;;8.02;7.00;;;;;;;;;;6004486;29;20053;-76
2022/07/21 07:58:25;;;;;;;7.57;6.70;;;;;;;;;;6002426;29;20138;-76
2022/07/21 08:01:27;;;;;;;6.90;6.18;;;;;;;;;;6004832;29;20045;-75
2022/07/21 08:04:28;;;;;;;7.53;6.55;;;;;;;;;;6009388;29;20064;-76
2022/07/21 08:07:30;;;;;;;7.50;6.30;;;;;;;;;;6006949;29;20049;-77
2022/07/21 08:10:32;;;;;;;6.97;6.25;;;;;;;;;;6009397;29;20060;-76
2022/07/21 08:13:44;;;;;;;7.65;6.43;;;;;;;;;;6009696;29;20106;-76
2022/07/21 08:16:46;;;;;;;10.93;6.53;;;;;;;;;;6010105;29;20063;-76
2022/07/21 08:19:47;;;;;;;8.77;6.10;;;;;;;;;;6018404;29;20045;-76
2022/07/21 08:22:49;;;;;;;7.22;6.03;;;;;;;;;;6024422;29;20049;-77
2022/07/21 08:25:51;;;;;;;7.07;6.32;;;;;;;;;;6002393;29;20053;-77
2022/07/21 08:28:54;;;;;;;7.40;6.70;;;;;;;;;;6001162;29;20424;-76
2022/07/21 08:31:56;;;;;;;6.82;5.78;;;;;;;;;;6015593;29;20055;-76
2022/07/21 08:34:57;;;;;;;7.50;6.40;;;;;;;;;;6022769;29;20589;-76
2022/07/21 08:38:04;;;;;;;7.40;6.55;;;;;;;;;;6024317;29;20045;-76
2022/07/21 08:41:08;;;;;;;7.05;6.03;;;;;;;;;;6023983;29;20046;-76
2022/07/21 08:44:10;;;;;;;9.15;6.15;;;;;;;;;;6006778;29;20056;-76
2022/07/21 08:47:12;;;;;;;;;;;;;;;;;;6024777;29;20066;-75
2022/07/21 08:50:14;;;;;;;7.75;6.57;;;;;;;;;;6020313;29;20019;-75
2022/07/21 08:53:15;;;;;;;8.88;5.68;;;;;;;;;;6023631;29;20180;-76
2022/07/21 08:56:17;;;;;;;6.65;5.50;;;;;;;;;;5989871;29;20182;-76
2022/07/21 08:59:19;;;;;;;8.27;5.28;;;;;;;;;;6005593;29;20133;-75
2022/07/21 09:02:33;;;;;;;7.17;5.03;;;;;;;;;;6005810;29;20056;-76
2022/07/21 09:05:35;;;;;;;7.03;4.95;;;;;;;;;;6004719;29;20046;-76
2022/07/21 09:08:38;;;;;;;6.20;5.55;;;;;;;;;;6003431;29;20064;-78
2022/07/21 09:11:43;;;;;;;6.13;5.53;;;;;;;;;;6022546;29;20189;-76
2022/07/21 09:14:46;;;;;;;6.80;5.75;;;;;;;;;;6022182;29;20053;-76
2022/07/21 09:18:08;;;;;;;6.38;5.75;;;;;;;;;;6004820;29;20054;-76
2022/07/21 09:21:15;;;;;;;6.90;5.38;;;;;;;;;;6011322;29;20042;-77
2022/07/21 09:24:32;;;;;;;5.97;5.38;;;;;;;;;;6017486;29;20042;-77
2022/07/21 09:27:33;;;;;;;7.03;5.30;;;;;;;;;;6020048;29;20125;-77
2022/07/21 09:31:02;;;;;;;5.95;5.35;;;;;;;;;;5996866;29;20394;-76
2022/07/21 09:34:12;;;;;;;5.72;4.95;;;;;;;;;;6002997;29;20072;-77
2022/07/21 09:37:15;;;;;;;5.90;5.35;;;;;;;;;;6023294;29;20065;-77
2022/07/21 09:40:17;;;;;;;6.05;5.30;;;;;;;;;;6015900;29;21126;-77
2022/07/21 09:43:41;;;;;;;6.35;5.32;;;;;;;;;;6020449;29;20045;-76
2022/07/21 09:46:43;;;;;;;5.60;4.90;;;;;;;;;;6001365;29;20140;-77
2022/07/21 09:49:45;;;;;;;5.10;4.60;;;;;;;;;;6019274;29;20155;-77
2022/07/21 09:53:07;;;;;;;5.53;5.00;;;;;;;;;;6021937;29;20399;-77
2022/07/21 09:56:09;;;;;;;5.75;4.95;;;;;;;;;;6022728;29;20046;-76
2022/07/21 09:59:12;;;;;;;6.13;5.13;;;;;;;;;;6014153;29;20140;-76
2022/07/21 10:02:23;;;;;;;6.07;5.07;;;;;;;;;;6021944;29;20076;-76
2022/07/21 10:05:26;;;;;;;5.88;5.00;;;;;;;;;;6018755;29;20079;-77
2022/07/21 10:08:36;;;;;;;7.82;5.78;;;;;;;;;;6002317;29;20057;-76
2022/07/21 10:11:41;;;;;;;5.97;5.38;;;;;;;;;;6022235;29;20506;-75
2022/07/21 10:14:44;;;;;;;6.10;5.43;;;;;;;;;;6016895;29;20053;-77
2022/07/21 10:17:49;;;;;;;7.60;5.35;;;;;;;;;;6021895;29;20077;-77
2022/07/21 10:20:59;;;;;;;6.10;5.40;;;;;;;;;;6002987;29;20162;-76
2022/07/21 10:24:00;;;;;;;6.45;5.40;;;;;;;;;;6022130;29;20046;-76
2022/07/21 10:27:13;;;;;;;6.28;5.68;;;;;;;;;;6016023;29;20120;-76
2022/07/21 10:30:15;;;;;;;7.00;5.38;;;;;;;;;;6020631;29;20042;-76
2022/07/21 10:33:41;;;;;;;6.10;5.05;;;;;;;;;;6019711;29;20061;-76
2022/07/21 10:36:44;;;;;;;5.68;5.10;;;;;;;;;;6003006;29;20104;-77
2022/07/21 10:39:45;;;;;;;6.03;5.32;;;;;;;;;;6003607;29;20098;-76
2022/07/21 10:42:59;;;;;;;6.07;5.43;;;;;;;;;;6005752;29;20074;-77
2022/07/21 10:46:01;;;;;;;7.10;5.45;;;;;;;;;;6005178;29;20612;-76
2022/07/21 10:49:05;;;;;;;5.50;5.00;;;;;;;;;;6007999;29;20046;-76
2022/07/21 10:52:35;;;;;;;5.78;5.05;;;;;;;;;;6006290;29;20042;-76
2022/07/21 10:55:37;;;;;;;5.07;4.35;;;;;;;;;;5987906;29;20054;-77
2022/07/21 10:58:41;;;;;;;6.32;5.50;;;;;;;;;;6002420;29;20043;-76
2022/07/21 11:01:42;;;;;;;7.47;4.90;;;;;;;;;;6004223;29;20494;-77
2022/07/21 11:05:04;;;;;;;5.28;4.78;;;;;;;;;;6018988;29;20442;-77
2022/07/21 11:08:10;;;;;;;5.10;4.55;;;;;;;;;;6023167;29;20236;-76
2022/07/21 11:11:19;;;;;;;4.85;4.43;;;;;;;;;;6023552;29;20059;-77
2022/07/21 11:14:35;;;;;;;4.93;4.53;;;;;;;;;;6015067;29;20045;-77
2022/07/21 11:17:39;;;;;;;5.57;4.60;;;;;;;;;;5995960;29;20037;-76
2022/07/21 11:20:40;;;;;;;7.07;4.40;;;;;;;;;;6005306;29;20049;-77
2022/07/21 11:23:48;;;;;;;5.97;4.57;;;;;;;;;;6021506;29;20053;-77
2022/07/21 11:27:09;;;;;;;4.78;4.00;;;;;;;;;;6021083;29;20064;-78
2022/07/21 11:30:11;;;;;;;4.18;3.60;;;;;;;;;;6019320;29;20057;-77
2022/07/21 11:33:21;;;;;;;4.13;3.72;;;;;;;;;;6017633;29;20049;-76
2022/07/21 11:36:25;;;;;;;4.30;3.90;;;;;;;;;;6004714;29;20132;-76
2022/07/21 11:39:27;;;;;;;4.15;3.45;;;;;;;;;;6020976;29;20077;-76
2022/07/21 11:42:30;;;;;;;4.00;3.60;;;;;;;;;;6018805;29;20124;-77
2022/07/21 11:45:32;;;;;;;3.95;3.47;;;;;;;;;;5988947;29;20663;-75
2022/07/21 11:48:33;;;;;;;4.20;3.43;;;;;;;;;;6016922;29;20059;-77
2022/07/21 11:51:35;;;;;;;4.57;3.63;;;;;;;;;;6021331;29;20391;-76
2022/07/21 11:54:51;;;;;;;3.43;3.13;;;;;;;;;;6021355;29;20088;-76
2022/07/21 11:57:52;;;;;;;5.55;3.10;;;;;;;;;;6016210;29;20454;-76
2022/07/21 12:01:14;;;;;;;6.50;3.37;;;;;;;;;;6020658;29;20049;-75
2022/07/21 12:04:28;;;;;;;4.03;3.35;;;;;;;;;;6008320;29;20091;-77
2022/07/21 12:07:36;;;;;;;4.00;3.70;;;;;;;;;;6016031;29;20444;-76
2022/07/21 12:10:37;;;;;;;5.18;3.10;;;;;;;;;;6011952;29;20178;-77
2022/07/21 12:13:55;;;;;;;3.70;3.40;;;;;;;;;;6015537;29;20061;-77
2022/07/21 12:16:57;;;;;;;5.45;3.58;;;;;;;;;;6003589;29;20627;-77
2022/07/21 12:19:59;;;;;;;3.87;3.47;;;;;;;;;;6017029;29;20060;-76
2022/07/21 12:23:23;;;;;;;4.65;3.42;;;;;;;;;;6021009;29;20564;-75
2022/07/21 12:26:25;;;;;;;4.47;3.50;;;;;;;;;;6002597;29;20038;-76
2022/07/21 12:29:28;;;;;;;5.28;3.63;;;;;;;;;;6013009;29;20046;-77
2022/07/21 12:32:40;;;;;;;4.88;3.67;;;;;;;;;;6004945;29;20049;-75
2022/07/21 12:35:46;;;;;;;4.03;3.40;;;;;;;;;;6004288;29;20113;-75
2022/07/21 12:38:50;;;;;;;4.60;3.40;;;;;;;;;;6002371;29;20511;-76
2022/07/21 12:41:52;;;;;;;3.35;3.05;;;;;;;;;;6005088;29;20050;-77
2022/07/21 12:44:54;;;;;;;4.85;3.33;;;;;;;;;;6003528;29;20041;-74
2022/07/21 12:48:10;;;;;;;3.80;3.50;;;;;;;;;;6006478;29;20045;-76
2022/07/21 12:51:15;;;;;;;5.20;3.47;;;;;;;;;;6014378;29;20841;-75
2022/07/21 12:54:16;;;;;;;3.80;3.30;;;;;;;;;;6024459;29;20132;-75
2022/07/21 12:57:18;;;;;;;5.63;3.38;;;;;;;;;;6008379;29;20046;-76
2022/07/21 13:00:20;;;;;;;5.35;3.80;;;;;;;;;;6018499;29;20041;-76
2022/07/21 13:03:21;;;;;;;4.20;3.47;;;;;;;;;;6021787;29;20299;-76
2022/07/21 13:06:31;;;;;;;5.18;3.60;;;;;;;;;;6019029;29;20057;-77
2022/07/21 13:09:33;;;;;;;4.25;3.85;;;;;;;;;;6024523;29;20535;-76
2022/07/21 13:12:34;;;;;;;3.67;3.37;;;;;;;;;;6018374;29;20049;-76
2022/07/21 13:15:36;;;;;;;4.83;3.60;;;;;;;;;;6010593;29;20406;-75
2022/07/21 13:18:38;;;;;;;4.40;4.00;;;;;;;;;;6014491;29;20046;-76
2022/07/21 13:21:39;;;;;;;4.53;4.13;;;;;;;;;;6006216;29;20045;-76
2022/07/21 13:24:41;;;;;;;5.07;4.10;;;;;;;;;;6023673;29;20042;-77
2022/07/21 13:27:42;;;;;;;7.45;4.07;;;;;;;;;;6014853;29;20114;-76
2022/07/21 13:30:49;;;;;;;6.22;4.35;;;;;;;;;;6023245;29;20532;-75
2022/07/21 13:33:50;;;;;;;6.30;4.07;;;;;;;;;;6019705;29;20465;-75
2022/07/21 13:36:52;;;;;;;7.13;4.18;;;;;;;;;;6022658;29;20446;-76
2022/07/21 13:39:54;;;;;;;4.38;3.75;;;;;;;;;;6022178;29;20052;-76
2022/07/21 13:43:16;;;;;;;5.65;4.10;;;;;;;;;;6017069;29;20050;-76
2022/07/21 13:46:38;;;;;;;6.90;4.07;;;;;;;;;;6003511;29;20050;-77
2022/07/21 13:49:39;;;;;;;5.70;3.90;;;;;;;;;;6005148;29;20443;-75
2022/07/21 13:52:41;;;;;;;4.85;3.60;;;;;;;;;;6003708;29;20712;-76
2022/07/21 13:55:43;;;;;;;5.03;4.13;;;;;;;;;;5986066;29;20083;-76
2022/07/21 13:58:45;;;;;;;5.15;3.65;;;;;;;;;;5981725;29;20137;-76
2022/07/21 14:01:47;;;;;;;4.23;3.80;;;;;;;;;;6003237;29;20053;-76
2022/07/21 14:04:49;;;;;;;5.55;4.10;;;;;;;;;;6013559;29;20181;-76
2022/07/21 14:07:51;;;;;;;5.88;4.25;;;;;;;;;;6017052;29;20673;-76
2022/07/21 14:10:53;;;;;;;7.05;4.50;;;;;;;;;;6015531;29;20437;-75
2022/07/21 14:13:55;;;;;;;6.00;4.03;;;;;;;;;;6014963;29;20517;-76
2022/07/21 14:16:58;;;;;;;5.22;4.57;;;;;;;;;;6015475;29;20796;-75
2022/07/21 14:20:00;;;;;;;4.80;4.30;;;;;;;;;;6003025;29;20057;-74
2022/07/21 14:23:01;;;;;;;4.97;4.05;;;;;;;;;;6002662;29;20050;-75
2022/07/21 14:26:03;;;;;;;5.47;4.00;;;;;;;;;;6004067;29;20088;-75
2022/07/21 14:29:05;;;;;;;7.23;4.37;;;;;;;;;;6012324;29;20057;-75
2022/07/21 14:32:07;;;;;;;5.57;3.90;;;;;;;;;;6014341;29;20038;-74
2022/07/21 14:35:09;;;;;;;4.67;4.23;;;;;;;;;;6016821;29;20422;-75
2022/07/21 14:38:11;;;;;;;6.73;4.63;;;;;;;;;;6016851;29;20065;-76
2022/07/21 14:41:12;;;;;;;4.70;3.75;;;;;;;;;;6014011;29;20860;-76
2022/07/21 14:44:14;;;;;;;5.40;4.75;;;;;;;;;;6005406;29;22305;-76
2022/07/21 14:47:16;;;;;;;5.85;4.63;;;;;;;;;;6007687;29;20049;-76
2022/07/21 14:50:17;;;;;;;5.72;4.70;;;;;;;;;;6007433;29;20438;-76
2022/07/21 14:53:26;;;;;;;5.40;4.68;;;;;;;;;;6015427;29;20391;-75
2022/07/21 14:56:28;;;;;;;7.03;4.70;;;;;;;;;;6013583;29;20050;-75
2022/07/21 14:59:50;;;;;;;6.78;5.13;;;;;;;;;;6011534;29;20064;-76
2022/07/21 15:02:53;;;;;;;8.48;5.35;;;;;;;;;;6018420;29;20505;-75
2022/07/21 15:05:56;;;;;;;6.13;4.97;;;;;;;;;;6012351;29;20056;-74
2022/07/21 15:08:58;;;;;;;5.73;5.00;;;;;;;;;;6018352;29;20445;-75
2022/07/21 15:11:59;;;;;;;5.87;5.27;;;;;;;;;;6015347;29;20409;-75
2022/07/21 15:15:01;;;;;;;6.65;5.30;;;;;;;;;;6020528;29;20807;-76
2022/07/21 15:18:03;;;;;;;8.02;5.13;;;;;;;;;;6020230;29;20049;-76
2022/07/21 15:21:05;;;;;;;6.35;4.88;;;;;;;;;;6017954;29;20053;-76
2022/07/21 15:24:07;;;;;;;6.10;5.27;;;;;;;;;;6020463;29;20132;-76
2022/07/21 15:27:08;;;;;;;7.82;5.03;;;;;;;;;;6017959;29;20057;-75
2022/07/21 15:30:13;;;;;;;6.50;5.32;;;;;;;;;;6018484;29;20044;-75
2022/07/21 15:33:15;;;;;;;7.93;5.53;;;;;;;;;;6018763;29;20050;-76
2022/07/21 15:36:17;;;;;;;7.47;5.07;;;;;;;;;;6020077;29;20108;-76
2022/07/21 15:39:21;;;;;;;7.03;5.40;;;;;;;;;;5987259;29;20529;-75
2022/07/21 15:42:24;;;;;;;8.13;5.43;;;;;;;;;;6016870;29;20044;-75
2022/07/21 15:45:25;;;;;;;6.05;5.45;;;;;;;;;;5982436;29;20052;-76
2022/07/21 15:48:27;;;;;;;7.10;5.45;;;;;;;;;;6015983;29;20084;-75
2022/07/21 15:51:31;;;;;;;6.53;5.18;;;;;;;;;;5988865;29;20050;-75
2022/07/21 15:54:33;;;;;;;8.13;5.70;;;;;;;;;;6019627;29;20056;-75
2022/07/21 15:57:55;;;;;;;7.78;5.35;;;;;;;;;;6012287;29;20064;-76
2022/07/21 16:00:57;;;;;;;6.27;5.20;;;;;;;;;;5996447;29;20090;-75
2022/07/21 16:03:59;;;;;;;7.03;5.85;;;;;;;;;;6015990;29;20052;-75
2022/07/21 16:07:02;;;;;;;7.72;6.13;;;;;;;;;;5990675;29;20046;-77
2022/07/21 16:10:04;;;;;;;7.50;5.97;;;;;;;;;;6015893;29;20045;-76
2022/07/21 16:13:06;;;;;;;9.55;6.65;;;;;;;;;;6018623;29;20683;-76
2022/07/21 16:16:08;;;;;;;7.28;5.78;;;;;;;;;;6000958;29;20060;-76
2022/07/21 16:19:10;;;;;;;8.25;6.30;;;;;;;;;;6013905;29;20083;-75
2022/07/21 16:22:12;;;;;;;9.60;7.00;;;;;;;;;;6018328;29;20118;-76
2022/07/21 16:25:18;;;;;;;7.80;6.15;;;;;;;;;;6021063;29;20107;-75
2022/07/21 16:28:20;;;;;;;7.35;6.25;;;;;;;;;;6018308;29;20053;-74
2022/07/21 16:31:22;;;;;;;8.93;6.97;;;;;;;;;;6023627;29;20515;-75
2022/07/21 16:34:33;;;;;;;8.88;6.57;;;;;;;;;;6022020;29;20067;-74
2022/07/21 16:37:37;;;;;;;7.22;6.43;;;;;;;;;;6023067;29;20171;-75
2022/07/21 16:40:38;;;;;;;9.55;7.15;;;;;;;;;;6022885;29;20060;-76
2022/07/21 16:43:40;;;;;;;9.18;6.90;;;;;;;;;;6021624;29;20057;-76
2022/07/21 16:46:43;;;;;;;11.60;6.55;;;;;;;;;;6007945;29;20050;-76
2022/07/21 16:49:45;;;;;;;10.15;7.07;;;;;;;;;;6019732;29;20045;-77
2022/07/21 16:52:47;;;;;;;7.00;6.30;;;;;;;;;;6023387;29;20606;-77
2022/07/21 16:55:49;;;;;;;9.45;6.35;;;;;;;;;;6023616;29;20531;-76
2022/07/21 16:58:51;;;;;;;8.65;6.68;;;;;;;;;;6016401;29;20045;-76
2022/07/21 17:01:52;;;;;;;9.05;6.68;;;;;;;;;;6007752;29;20042;-77
2022/07/21 17:04:54;;;;;;;8.98;6.60;;;;;;;;;;6020982;29;20124;-78
2022/07/21 17:07:56;;;;;;;11.25;6.75;;;;;;;;;;6007237;29;20426;-76
2022/07/21 17:10:57;;;;;;;8.82;6.63;;;;;;;;;;6022850;29;20058;-76
2022/07/21 17:13:59;;;;;;;9.23;6.65;;;;;;;;;;6014004;29;20049;-76
2022/07/21 17:17:01;;;;;;;9.00;6.50;;;;;;;;;;6007332;29;20053;-76
2022/07/21 17:20:04;;;;;;;7.43;5.10;;;;;;;;;;6003566;29;20049;-76
2022/07/21 17:23:06;;;;;;;5.22;4.70;;;;;;;;;;6003876;29;20058;-76
2022/07/21 17:26:08;;;;;;;4.65;4.15;;;;;;;;;;5999935;29;20046;-76
2022/07/21 17:29:10;;;;;;;4.53;3.33;;;;;;;;;;6000990;29;20192;-76
2022/07/21 17:32:13;;;;;;;4.53;3.78;;;;;;;;;;6004279;29;20050;-76
2022/07/21 17:35:15;;;;;;;5.07;3.60;;;;;;;;;;6001039;29;20521;-76
2022/07/21 17:38:17;;;;;;;5.20;3.20;;;;;;;;;;6022066;29;20085;-76
2022/07/21 17:41:18;;;;;;;5.97;3.60;;;;;;;;;;6017456;29;20458;-76
2022/07/21 17:44:20;;;;;;;4.90;3.70;;;;;;;;;;6013697;29;20042;-77
2022/07/21 17:47:22;;;;;;;3.80;2.97;;;;;;;;;;6021912;29;20525;-76
2022/07/21 17:50:24;;;;;;;4.43;3.50;;;;;;;;;;5995536;29;20056;-76
2022/07/21 17:53:25;;;;;;;4.00;3.30;;;;;;;;;;6005675;29;20056;-77
2022/07/21 17:56:27;;;;;;;4.50;3.45;;;;;;;;;;6000969;29;20074;-76
2022/07/21 17:59:29;;;;;;;4.60;3.70;;;;;;;;;;6021458;29;20494;-76
2022/07/21 18:02:30;;;;;;;4.75;3.97;;;;;;;;;;6014745;29;20057;-75
2022/07/21 18:05:33;;;;;;;4.97;4.10;;;;;;;;;;6018556;29;20053;-75
2022/07/21 18:08:34;;;;;;;4.93;3.97;;;;;;;;;;6021531;29;20090;-75
2022/07/21 18:11:36;;;;;;;5.30;3.90;;;;;;;;;;6021498;29;20057;-75
2022/07/21 18:14:37;;;;;;;4.80;3.90;;;;;;;;;;6021739;29;20060;-75
2022/07/21 18:17:40;;;;;;;5.28;4.50;;;;;;;;;;6005155;29;20037;-75